createdAt,value
2023-03-26T00:00:44.834Z,66.63
2023-03-26T00:03:33.768Z,66.68
2023-03-26T00:06:08.641Z,66.73
2023-03-26T00:08:39.922Z,66.88
2023-03-26T00:11:11.168Z,66.93
2023-03-26T00:13:41.590Z,67.00
2023-03-26T00:16:15.530Z,67.06
2023-03-26T00:18:44.682Z,67.09
2023-03-26T00:21:15.619Z,67.14
2023-03-26T00:23:44.808Z,67.09
2023-03-26T00:26:13.229Z,67.10
2023-03-26T00:28:42.787Z,67.14
2023-03-26T00:31:13.454Z,67.19
2023-03-26T00:33:42.239Z,67.17
2023-03-26T00:36:17.531Z,67.16
2023-03-26T00:38:46.966Z,67.18
2023-03-26T00:41:18.091Z,67.26
2023-03-26T00:43:47.035Z,67.30
2023-03-26T00:46:17.669Z,67.31
2023-03-26T00:48:46.747Z,67.38
2023-03-26T00:51:19.776Z,67.43
2023-03-26T00:53:49.775Z,67.46
2023-03-26T00:56:18.904Z,67.54
2023-03-26T00:58:50.137Z,67.55
2023-03-26T01:01:27.921Z,67.58
2023-03-26T01:04:07.609Z,67.62
2023-03-26T01:06:39.594Z,67.65
2023-03-26T01:09:17.514Z,67.75
2023-03-26T01:11:46.426Z,67.83
2023-03-26T01:14:32.740Z,67.83
2023-03-26T01:17:03.608Z,67.87
2023-03-26T01:19:45.769Z,67.77
2023-03-26T01:22:20.155Z,67.62
2023-03-26T01:24:53.823Z,67.57
2023-03-26T01:27:35.959Z,67.52
2023-03-26T01:30:23.101Z,67.51
2023-03-26T01:33:18.805Z,67.58
2023-03-26T01:35:57.598Z,67.62
2023-03-26T01:39:18.634Z,67.64
2023-03-26T01:41:57.480Z,67.59
2023-03-26T01:44:48.295Z,67.61
2023-03-26T01:47:18.535Z,67.64
2023-03-26T01:49:47.394Z,67.54
2023-03-26T01:52:21.434Z,67.54
2023-03-26T01:54:50.359Z,67.51
2023-03-26T01:57:41.950Z,67.41
2023-03-26T02:00:22.212Z,67.44
2023-03-26T02:02:59.468Z,67.37
2023-03-26T02:05:49.911Z,67.32
2023-03-26T02:08:35.605Z,67.34
2023-03-26T02:11:11.867Z,67.32
2023-03-26T02:13:45.628Z,67.26
2023-03-26T02:16:17.021Z,67.25
2023-03-26T02:18:47.624Z,67.32
2023-03-26T02:21:20.412Z,67.43
2023-03-26T02:23:51.008Z,67.50
2023-03-26T02:26:20.542Z,67.59
2023-03-26T02:28:59.506Z,67.63
2023-03-26T02:31:28.386Z,67.69
2023-03-26T02:33:57.335Z,67.77
2023-03-26T02:36:28.158Z,67.85
2023-03-26T02:39:00.374Z,67.86
2023-03-26T02:41:30.504Z,67.88
2023-03-26T02:44:01.860Z,67.97
2023-03-26T02:46:48.849Z,68.10
2023-03-26T02:49:55.413Z,68.18
2023-03-26T02:52:49.243Z,68.29
2023-03-26T02:55:17.830Z,68.33
2023-03-26T02:57:47.270Z,68.41
2023-03-26T03:00:22.882Z,68.48
2023-03-26T03:03:10.152Z,68.53
2023-03-26T03:06:01.640Z,68.61
2023-03-26T03:08:46.148Z,68.64
2023-03-26T03:11:32.804Z,68.67
2023-03-26T03:14:01.220Z,68.66
2023-03-26T03:16:31.682Z,68.62
2023-03-26T03:19:06.436Z,68.59
2023-03-26T03:21:40.365Z,68.56
2023-03-26T03:24:11.700Z,68.61
2023-03-26T03:26:46.332Z,68.64
2023-03-26T03:29:33.006Z,68.69
2023-03-26T03:32:14.019Z,68.70
2023-03-26T03:34:49.895Z,68.70
2023-03-26T03:37:19.986Z,68.64
2023-03-26T03:39:54.225Z,68.57
2023-03-26T03:42:23.654Z,68.56
2023-03-26T03:44:53.613Z,68.53
2023-03-26T03:47:44.915Z,68.48
2023-03-26T03:50:13.536Z,68.44
2023-03-26T03:52:50.718Z,68.42
2023-03-26T03:55:19.057Z,68.32
2023-03-26T03:57:52.617Z,68.27
2023-03-26T04:00:24.368Z,68.21
2023-03-26T04:03:14.484Z,68.19
2023-03-26T04:05:55.186Z,68.16
2023-03-26T04:08:25.079Z,68.14
2023-03-26T04:10:56.172Z,68.10
2023-03-26T04:13:43.353Z,68.16
2023-03-26T04:16:34.770Z,68.16
2023-03-26T04:19:04.104Z,68.07
2023-03-26T04:21:34.037Z,68.01
2023-03-26T04:24:02.694Z,67.87
2023-03-26T04:26:51.211Z,67.83
2023-03-26T04:29:28.002Z,67.73
2023-03-26T04:32:06.593Z,67.64
2023-03-26T04:34:34.897Z,67.57
2023-03-26T04:37:19.119Z,67.43
2023-03-26T04:39:50.270Z,67.32
2023-03-26T04:42:46.413Z,67.23
2023-03-26T04:45:25.689Z,67.11
2023-03-26T04:47:58.485Z,67.00
2023-03-26T04:50:27.020Z,67.19
2023-03-26T04:52:57.609Z,66.85
2023-03-26T04:55:53.590Z,66.78
2023-03-26T04:58:34.196Z,66.65
2023-03-26T05:01:10.142Z,66.62
2023-03-26T05:03:42.517Z,66.56
2023-03-26T05:06:13.909Z,66.53
2023-03-26T05:08:42.488Z,66.47
2023-03-26T05:11:14.073Z,66.48
2023-03-26T05:13:43.027Z,66.44
2023-03-26T05:16:13.622Z,66.34
2023-03-26T05:18:57.211Z,66.27
2023-03-26T05:21:25.882Z,66.17
2023-03-26T05:23:54.022Z,66.07
2023-03-26T05:26:23.260Z,65.94
2023-03-26T05:28:52.699Z,65.93
2023-03-26T05:31:24.350Z,65.90
2023-03-26T05:33:55.189Z,65.98
2023-03-26T05:36:24.377Z,65.91
2023-03-26T05:39:04.040Z,65.95
2023-03-26T05:41:55.645Z,65.94
2023-03-26T05:44:28.796Z,65.77
2023-03-26T05:46:57.450Z,65.70
2023-03-26T05:49:27.143Z,65.67
2023-03-26T05:51:55.834Z,65.80
2023-03-26T05:54:52.949Z,65.91
2023-03-26T05:57:40.823Z,66.05
2023-03-26T06:00:38.458Z,66.10
2023-03-26T06:03:12.680Z,66.09
2023-03-26T06:05:59.499Z,66.11
2023-03-26T06:08:39.728Z,66.22
2023-03-26T06:11:08.320Z,66.35
2023-03-26T06:13:40.257Z,66.37
2023-03-26T06:16:10.535Z,66.39
2023-03-26T06:19:08.424Z,66.54
2023-03-26T06:21:50.515Z,66.72
2023-03-26T06:24:22.899Z,66.62
2023-03-26T06:27:14.216Z,66.58
2023-03-26T06:29:53.475Z,66.57
2023-03-26T06:32:34.588Z,66.48
2023-03-26T06:35:12.142Z,66.42
2023-03-26T06:37:42.517Z,66.43
2023-03-26T06:40:11.588Z,66.37
2023-03-26T06:43:10.042Z,66.30
2023-03-26T06:46:07.973Z,66.47
2023-03-26T06:49:14.321Z,66.21
2023-03-26T06:52:03.084Z,66.18
2023-03-26T06:55:01.081Z,66.30
2023-03-26T06:57:54.325Z,66.27
2023-03-26T07:01:00.839Z,66.22
2023-03-26T07:03:48.034Z,66.29
2023-03-26T07:06:34.615Z,66.22
2023-03-26T07:09:21.766Z,66.19
2023-03-26T07:12:09.696Z,66.15
2023-03-26T07:14:58.417Z,66.05
2023-03-26T07:17:48.313Z,66.03
2023-03-26T07:20:22.757Z,65.90
2023-03-26T07:22:51.921Z,65.87
2023-03-26T07:25:49.999Z,65.89
2023-03-26T07:29:04.998Z,65.77
2023-03-26T07:32:00.382Z,65.67
2023-03-26T07:34:56.728Z,65.52
2023-03-26T07:37:33.427Z,65.22
2023-03-26T07:41:02.115Z,65.08
2023-03-26T07:44:11.823Z,65.23
2023-03-26T07:47:04.964Z,65.35
2023-03-26T07:49:43.430Z,65.54
2023-03-26T07:52:33.758Z,65.86
2023-03-26T07:55:17.512Z,66.22
2023-03-26T07:59:04.297Z,66.45
2023-03-26T08:02:02.417Z,66.70
2023-03-26T08:05:22.668Z,67.04
2023-03-26T08:08:31.555Z,67.28
2023-03-26T08:11:48.892Z,67.46
2023-03-26T08:14:24.970Z,67.63
2023-03-26T08:17:14.719Z,67.50
2023-03-26T08:19:45.822Z,67.25
2023-03-26T08:22:31.609Z,67.00
2023-03-26T08:25:05.810Z,66.70
2023-03-26T08:27:43.823Z,66.31
2023-03-26T08:30:24.008Z,66.23
2023-03-26T08:33:11.375Z,66.38
2023-03-26T08:35:42.980Z,66.65
2023-03-26T08:38:14.350Z,66.65
2023-03-26T08:41:10.412Z,66.48
2023-03-26T08:44:16.492Z,66.29
2023-03-26T08:47:06.989Z,66.54
2023-03-26T08:50:08.707Z,66.46
2023-03-26T08:53:08.608Z,65.92
2023-03-26T08:56:18.664Z,65.48
2023-03-26T08:59:12.038Z,65.32
2023-03-26T09:02:02.960Z,65.04
2023-03-26T09:04:51.091Z,65.11
2023-03-26T09:07:41.770Z,65.07
2023-03-26T09:10:31.806Z,65.08
2023-03-26T09:13:13.419Z,65.21
2023-03-26T09:15:50.897Z,65.33
2023-03-26T09:19:05.286Z,65.33
2023-03-26T09:21:39.442Z,65.36
2023-03-26T09:24:43.831Z,65.42
2023-03-26T09:27:27.310Z,65.48
2023-03-26T09:30:24.186Z,65.26
2023-03-26T09:33:28.034Z,64.88
2023-03-26T09:36:05.413Z,64.80
2023-03-26T09:38:51.778Z,64.67
2023-03-26T09:41:23.979Z,64.71
2023-03-26T09:44:07.646Z,64.75
2023-03-26T09:46:46.931Z,64.72
2023-03-26T09:49:28.646Z,64.92
2023-03-26T09:52:12.777Z,64.86
2023-03-26T09:55:08.335Z,65.02
2023-03-26T09:58:04.985Z,64.84
2023-03-26T10:00:56.501Z,64.93
2023-03-26T10:03:34.344Z,65.01
2023-03-26T10:06:28.166Z,64.95
2023-03-26T10:09:46.062Z,64.90
2023-03-26T10:12:36.667Z,65.31
2023-03-26T10:15:27.446Z,65.53
2023-03-26T10:18:29.497Z,66.00
2023-03-26T10:21:12.645Z,65.63
2023-03-26T10:23:57.970Z,65.37
2023-03-26T10:26:34.861Z,65.50
2023-03-26T10:29:11.206Z,65.28
2023-03-26T10:31:39.704Z,64.78
2023-03-26T10:34:43.887Z,64.64
2023-03-26T10:37:32.008Z,64.43
2023-03-26T10:40:24.631Z,64.15
2023-03-26T10:43:01.557Z,63.08
2023-03-26T10:45:45.654Z,63.04
2023-03-26T10:48:25.840Z,62.68
2023-03-26T10:51:17.861Z,62.52
2023-03-26T10:54:01.000Z,62.85
2023-03-26T10:56:41.295Z,62.69
2023-03-26T10:59:13.741Z,62.27
2023-03-26T11:01:44.926Z,61.69
2023-03-26T11:04:19.416Z,61.48
2023-03-26T11:06:47.639Z,61.50
2023-03-26T11:09:44.743Z,61.50
2023-03-26T11:12:29.384Z,61.54
2023-03-26T11:15:10.635Z,61.43
2023-03-26T11:17:57.961Z,61.76
2023-03-26T11:20:38.915Z,61.86
2023-03-26T11:23:13.614Z,62.08
2023-03-26T11:26:03.693Z,62.31
2023-03-26T11:29:03.187Z,62.63
2023-03-26T11:31:50.711Z,62.92
2023-03-26T11:34:22.712Z,62.91
2023-03-26T11:36:54.764Z,62.94
2023-03-26T11:39:29.655Z,63.28
2023-03-26T11:42:12.547Z,63.38
2023-03-26T11:44:53.240Z,63.30
2023-03-26T11:47:32.379Z,63.27
2023-03-26T11:50:03.665Z,63.37
2023-03-26T11:52:31.880Z,63.35
2023-03-26T11:55:00.309Z,63.57
2023-03-26T11:57:34.768Z,63.85
2023-03-26T12:00:16.504Z,63.83
2023-03-26T12:02:47.058Z,63.87
2023-03-26T12:05:21.811Z,64.28
2023-03-26T12:07:54.707Z,64.52
2023-03-26T12:10:43.129Z,64.76
2023-03-26T12:13:42.193Z,64.96
2023-03-26T12:16:14.055Z,64.70
2023-03-26T12:18:44.536Z,64.32
2023-03-26T12:21:17.930Z,64.32
2023-03-26T12:24:05.376Z,64.42
2023-03-26T12:26:45.737Z,64.41
2023-03-26T12:29:16.618Z,64.43
2023-03-26T12:31:56.913Z,64.59
2023-03-26T12:34:34.831Z,64.56
2023-03-26T12:37:05.713Z,64.79
2023-03-26T12:40:07.228Z,64.88
2023-03-26T12:44:48.415Z,64.85
2023-03-26T12:45:29.982Z,65.09
2023-03-26T12:48:03.973Z,65.08
2023-03-26T12:50:54.740Z,65.18
2023-03-26T12:53:45.342Z,65.15
2023-03-26T12:56:22.105Z,65.22
2023-03-26T12:59:11.953Z,65.58
2023-03-26T13:02:02.288Z,65.80
2023-03-26T13:04:37.712Z,65.59
2023-03-26T13:07:37.072Z,65.89
2023-03-26T13:10:08.785Z,65.69
2023-03-26T13:12:51.505Z,65.64
2023-03-26T13:15:29.107Z,65.62
2023-03-26T13:18:22.076Z,65.91
2023-03-26T13:21:05.753Z,65.72
2023-03-26T13:23:48.303Z,65.26
2023-03-26T13:26:46.671Z,65.11
2023-03-26T13:29:26.287Z,64.63
2023-03-26T13:32:05.056Z,64.40
2023-03-26T13:34:58.209Z,63.71
2023-03-26T13:37:41.220Z,63.23
2023-03-26T13:40:17.933Z,62.93
2023-03-26T13:42:58.401Z,62.53
2023-03-26T13:45:43.261Z,62.40
2023-03-26T13:48:18.791Z,62.42
2023-03-26T13:51:01.898Z,62.22
2023-03-26T13:53:40.868Z,62.18
2023-03-26T13:56:15.877Z,61.71
2023-03-26T13:58:44.255Z,61.64
2023-03-26T14:01:19.529Z,61.45
2023-03-26T14:03:57.231Z,61.53
2023-03-26T14:06:42.379Z,61.54
2023-03-26T14:09:19.281Z,61.27
2023-03-26T14:11:56.946Z,60.46
2023-03-26T14:14:48.505Z,60.63
2023-03-26T14:17:26.963Z,58.72
2023-03-26T14:20:33.018Z,58.70
2023-03-26T14:23:22.935Z,59.88
2023-03-26T14:26:06.929Z,59.76
2023-03-26T14:28:44.172Z,59.68
2023-03-26T14:31:31.693Z,59.87
2023-03-26T14:34:23.709Z,59.68
2023-03-26T14:37:28.307Z,59.41
2023-03-26T14:40:17.181Z,59.39
2023-03-26T14:43:08.289Z,60.36
2023-03-26T14:46:05.861Z,58.84
2023-03-26T14:48:37.555Z,59.52
2023-03-26T14:51:20.774Z,59.39
2023-03-26T14:53:53.528Z,59.26
2023-03-26T14:56:24.729Z,59.33
2023-03-26T14:58:53.119Z,58.42
2023-03-26T15:01:24.702Z,56.62
2023-03-26T15:04:11.768Z,56.97
2023-03-26T15:06:58.915Z,56.14
2023-03-26T15:09:46.372Z,57.34
2023-03-26T15:12:52.722Z,56.42
2023-03-26T15:15:58.529Z,57.00
2023-03-26T15:19:01.456Z,56.03
2023-03-26T15:22:08.433Z,55.48
2023-03-26T15:24:53.007Z,56.93
2023-03-26T15:27:26.985Z,57.44
2023-03-26T15:30:07.474Z,56.52
2023-03-26T15:32:41.614Z,56.17
2023-03-26T15:35:26.521Z,55.79
2023-03-26T15:38:42.918Z,56.99
2023-03-26T15:41:19.631Z,57.77
2023-03-26T15:44:24.207Z,57.44
2023-03-26T15:47:20.637Z,57.09
2023-03-26T15:50:09.977Z,57.91
2023-03-26T15:53:03.340Z,58.54
2023-03-26T15:55:41.422Z,58.89
2023-03-26T15:58:31.990Z,58.76
2023-03-26T16:01:38.026Z,59.44
2023-03-26T16:04:14.758Z,58.85
2023-03-26T16:07:34.313Z,59.47
2023-03-26T16:10:28.752Z,59.52
2023-03-26T16:13:27.450Z,59.37
2023-03-26T16:15:58.236Z,58.73
2023-03-26T16:18:46.668Z,58.46
2023-03-26T16:21:36.755Z,58.57
2023-03-26T16:24:08.223Z,58.50
2023-03-26T16:26:51.751Z,58.64
2023-03-26T16:29:28.677Z,59.05
2023-03-26T16:31:59.953Z,59.33
2023-03-26T16:34:39.046Z,58.49
2023-03-26T16:37:36.684Z,58.62
2023-03-26T16:40:23.630Z,58.60
2023-03-26T16:43:11.718Z,58.51
2023-03-26T16:46:05.853Z,58.77
2023-03-26T16:48:55.522Z,58.20
2023-03-26T16:51:39.052Z,57.91
2023-03-26T16:54:14.048Z,58.73
2023-03-26T16:56:42.224Z,58.79
2023-03-26T16:59:46.078Z,58.33
2023-03-26T17:02:36.757Z,58.33
2023-03-26T17:05:21.530Z,58.99
2023-03-26T17:08:07.742Z,58.62
2023-03-26T17:10:42.246Z,58.07
2023-03-26T17:13:20.469Z,58.09
2023-03-26T17:15:58.281Z,57.92
2023-03-26T17:18:39.449Z,57.38
2023-03-26T17:21:45.761Z,57.98
2023-03-26T17:24:33.962Z,57.62
2023-03-26T17:27:50.565Z,57.42
2023-03-26T17:30:49.390Z,57.11
2023-03-26T17:33:22.374Z,57.13
2023-03-26T17:35:52.040Z,56.82
2023-03-26T17:38:26.969Z,57.03
2023-03-26T17:40:58.869Z,57.39
2023-03-26T17:43:34.410Z,57.13
2023-03-26T17:46:10.798Z,57.31
2023-03-26T17:48:47.129Z,57.71
2023-03-26T17:51:46.980Z,57.77
2023-03-26T17:54:22.760Z,57.76
2023-03-26T17:56:53.466Z,58.09
2023-03-26T17:59:27.334Z,58.23
2023-03-26T18:02:03.501Z,58.41
2023-03-26T18:04:42.468Z,58.28
2023-03-26T18:07:15.359Z,58.38
2023-03-26T18:10:29.103Z,58.42
2023-03-26T18:13:06.332Z,58.42
2023-03-26T18:15:45.007Z,58.63
2023-03-26T18:18:22.742Z,58.61
2023-03-26T18:20:52.231Z,58.76
2023-03-26T18:23:25.427Z,58.91
2023-03-26T18:26:12.772Z,58.92
2023-03-26T18:28:49.425Z,59.01
2023-03-26T18:31:24.643Z,59.07
2023-03-26T18:33:59.125Z,59.15
2023-03-26T18:36:28.203Z,59.19
2023-03-26T18:38:58.735Z,59.56
2023-03-26T18:41:32.733Z,59.63
2023-03-26T18:44:06.234Z,59.69
2023-03-26T18:46:34.912Z,59.77
2023-03-26T18:49:04.011Z,59.92
2023-03-26T18:51:35.034Z,60.02
2023-03-26T18:54:14.467Z,60.03
2023-03-26T18:56:47.216Z,60.16
2023-03-26T18:59:31.895Z,60.32
2023-03-26T19:02:04.628Z,60.32
2023-03-26T19:04:35.182Z,60.38
2023-03-26T19:07:10.486Z,60.37
2023-03-26T19:09:40.583Z,60.37
2023-03-26T19:12:23.110Z,60.48
2023-03-26T19:15:16.192Z,60.80
2023-03-26T19:17:53.370Z,60.78
2023-03-26T19:20:26.296Z,61.11
2023-03-26T19:22:56.061Z,61.26
2023-03-26T19:25:36.970Z,61.32
2023-03-26T19:28:07.264Z,61.73
2023-03-26T19:30:40.710Z,61.78
2023-03-26T19:33:21.251Z,61.87
2023-03-26T19:36:01.893Z,62.02
2023-03-26T19:38:38.879Z,62.04
2023-03-26T19:41:21.334Z,62.10
2023-03-26T19:44:00.437Z,62.95
2023-03-26T19:46:32.497Z,63.87
2023-03-26T19:49:00.655Z,63.85
2023-03-26T19:51:37.729Z,63.62
2023-03-26T19:54:16.024Z,63.43
2023-03-26T19:56:44.416Z,63.09
2023-03-26T19:59:14.230Z,62.94
2023-03-26T20:01:42.647Z,62.69
2023-03-26T20:04:12.430Z,62.31
2023-03-26T20:06:43.721Z,62.18
2023-03-26T20:09:13.824Z,61.94
2023-03-26T20:11:42.463Z,61.95
2023-03-26T20:14:21.819Z,62.08
2023-03-26T20:16:50.269Z,61.99
2023-03-26T20:19:19.290Z,62.27
2023-03-26T20:21:47.473Z,62.43
2023-03-26T20:24:17.821Z,62.55
2023-03-26T20:26:46.891Z,62.59
2023-03-26T20:29:16.022Z,62.60
2023-03-26T20:31:44.396Z,62.57
2023-03-26T20:34:21.949Z,62.31
2023-03-26T20:36:55.379Z,62.44
2023-03-26T20:39:24.780Z,62.46
2023-03-26T20:41:54.772Z,62.42
2023-03-26T20:44:23.430Z,62.40
2023-03-26T20:46:51.836Z,62.44
2023-03-26T20:49:22.315Z,62.48
2023-03-26T20:51:50.647Z,62.48
2023-03-26T20:54:21.752Z,62.41
2023-03-26T20:56:50.431Z,62.36
2023-03-26T20:59:22.533Z,62.33
2023-03-26T21:01:51.514Z,62.39
2023-03-26T21:04:20.595Z,62.27
2023-03-26T21:06:49.335Z,62.18
2023-03-26T21:09:23.924Z,62.09
2023-03-26T21:12:08.105Z,62.14
2023-03-26T21:14:41.985Z,62.16
2023-03-26T21:17:19.512Z,62.07
2023-03-26T21:19:48.634Z,62.25
2023-03-26T21:22:25.846Z,62.32
2023-03-26T21:24:59.823Z,61.98
2023-03-26T21:27:53.031Z,61.91
2023-03-26T21:30:22.305Z,61.84
2023-03-26T21:32:51.437Z,61.24
2023-03-26T21:35:20.527Z,60.95
2023-03-26T21:37:49.327Z,60.78
2023-03-26T21:40:19.005Z,60.57
2023-03-26T21:42:50.634Z,60.77
2023-03-26T21:45:20.229Z,60.96
2023-03-26T21:47:49.039Z,61.12
2023-03-26T21:50:20.756Z,61.15
2023-03-26T21:52:50.173Z,61.15
2023-03-26T21:55:23.993Z,61.39
2023-03-26T21:58:02.618Z,61.29
2023-03-26T22:00:55.920Z,61.33
2023-03-26T22:03:37.279Z,61.48
2023-03-26T22:06:17.713Z,61.55
2023-03-26T22:08:46.293Z,61.64
2023-03-26T22:11:14.323Z,61.64
2023-03-26T22:13:42.571Z,61.53
2023-03-26T22:16:10.800Z,61.49
2023-03-26T22:18:39.241Z,61.79
2023-03-26T22:21:07.821Z,61.88
2023-03-26T22:23:38.143Z,61.97
2023-03-26T22:26:06.441Z,62.01
2023-03-26T22:28:34.505Z,62.14
2023-03-26T22:31:09.009Z,61.96
2023-03-26T22:33:40.192Z,61.53
2023-03-26T22:36:22.097Z,61.35
2023-03-26T22:38:53.976Z,61.22
2023-03-26T22:41:23.177Z,61.12
2023-03-26T22:43:54.754Z,60.82
2023-03-26T22:46:23.696Z,60.61
2023-03-26T22:48:51.975Z,60.53
2023-03-26T22:51:20.631Z,60.49
2023-03-26T22:53:48.836Z,60.30
2023-03-26T22:56:17.236Z,60.01
2023-03-26T22:58:48.093Z,59.63
2023-03-26T23:01:19.954Z,59.03
2023-03-26T23:03:49.386Z,58.36
2023-03-26T23:06:18.124Z,58.39
2023-03-26T23:08:46.784Z,58.79
2023-03-26T23:11:20.530Z,59.12
2023-03-26T23:13:49.558Z,59.95
2023-03-26T23:16:18.077Z,60.93
2023-03-26T23:18:46.707Z,60.56
2023-03-26T23:21:20.379Z,60.55
2023-03-26T23:23:50.419Z,60.72
2023-03-26T23:26:18.683Z,60.92
2023-03-26T23:28:47.006Z,61.17
2023-03-26T23:31:15.181Z,61.35
2023-03-26T23:33:47.521Z,61.68
2023-03-26T23:36:18.376Z,61.73
2023-03-26T23:38:48.581Z,61.79
2023-03-26T23:41:22.587Z,62.35
2023-03-26T23:43:54.596Z,63.12
2023-03-26T23:46:30.297Z,62.96
2023-03-26T23:49:00.195Z,62.72
2023-03-26T23:51:30.396Z,62.36
2023-03-26T23:53:59.895Z,61.92
2023-03-26T23:56:30.026Z,61.47
2023-03-26T23:58:59.313Z,61.03
